sensor_id;sensor_type;location;lat;lon;timestamp;pressure;altitude;pressure_sealevel;temperature;humidity
76853;BME280;65825;52.232;10.566;2023-07-09T00:00:52;59148.31;;;-139.39;100.00
76853;BME280;65825;52.232;10.566;2023-07-09T00:03:17;59148.31;;;-139.39;100.00
76853;BME280;65825;52.232;10.566;2023-07-09T00:05:45;59148.31;;;-139.39;100.00
76853;BME280;65825;52.232;10.566;2023-07-09T00:08:25;59148.31;;;-139.39;100.00
76853;BME280;65825;52.232;10.566;2023-07-09T00:10:53;59148.31;;;-139.39;100.00
76853;BME280;65825;52.232;10.566;2023-07-09T00:13:20;59148.31;;;-139.39;100.00
76853;BME280;65825;52.232;10.566;2023-07-09T00:15:46;59148.31;;;-139.39;100.00
76853;BME280;65825;52.232;10.566;2023-07-09T00:18:11;59148.31;;;-139.39;100.00
76853;BME280;65825;52.232;10.566;2023-07-09T00:20:36;59148.31;;;-139.39;100.00
76853;BME280;65825;52.232;10.566;2023-07-09T00:23:01;59148.31;;;-139.39;100.00
76853;BME280;65825;52.232;10.566;2023-07-09T00:25:30;59148.31;;;-139.39;100.00
76853;BME280;65825;52.232;10.566;2023-07-09T00:27:55;59148.31;;;-139.39;100.00
76853;BME280;65825;52.232;10.566;2023-07-09T00:30:22;59148.31;;;-139.39;100.00
76853;BME280;65825;52.232;10.566;2023-07-09T00:32:48;59148.31;;;-139.39;100.00
76853;BME280;65825;52.232;10.566;2023-07-09T00:35:14;59148.31;;;-139.39;100.00
76853;BME280;65825;52.232;10.566;2023-07-09T00:37:40;59148.31;;;-139.39;100.00
76853;BME280;65825;52.232;10.566;2023-07-09T00:40:16;59148.31;;;-139.39;100.00
76853;BME280;65825;52.232;10.566;2023-07-09T00:42:45;59148.31;;;-139.39;100.00
76853;BME280;65825;52.232;10.566;2023-07-09T00:45:23;59148.31;;;-139.39;100.00
76853;BME280;65825;52.232;10.566;2023-07-09T00:47:53;59148.31;;;-139.39;100.00
76853;BME280;65825;52.232;10.566;2023-07-09T00:50:31;59148.31;;;-139.39;100.00
76853;BME280;65825;52.232;10.566;2023-07-09T00:53:03;59148.31;;;-139.39;100.00
76853;BME280;65825;52.232;10.566;2023-07-09T00:55:34;59148.31;;;-139.39;100.00
76853;BME280;65825;52.232;10.566;2023-07-09T00:58:05;59148.31;;;-139.39;100.00
76853;BME280;65825;52.232;10.566;2023-07-09T01:00:39;59148.31;;;-139.39;100.00
76853;BME280;65825;52.232;10.566;2023-07-09T01:03:18;59148.31;;;-139.39;100.00
76853;BME280;65825;52.232;10.566;2023-07-09T01:05:47;59148.31;;;-139.39;100.00
76853;BME280;65825;52.232;10.566;2023-07-09T01:08:18;59148.31;;;-139.39;100.00
76853;BME280;65825;52.232;10.566;2023-07-09T01:10:43;59148.31;;;-139.39;100.00
76853;BME280;65825;52.232;10.566;2023-07-09T01:13:09;59148.31;;;-139.39;100.00
76853;BME280;65825;52.232;10.566;2023-07-09T01:15:35;59148.31;;;-139.39;100.00
76853;BME280;65825;52.232;10.566;2023-07-09T01:18:04;59148.31;;;-139.39;100.00
76853;BME280;65825;52.232;10.566;2023-07-09T01:20:30;59148.31;;;-139.39;100.00
76853;BME280;65825;52.232;10.566;2023-07-09T01:22:56;59148.31;;;-139.39;100.00
76853;BME280;65825;52.232;10.566;2023-07-09T01:25:24;59148.31;;;-139.39;100.00
76853;BME280;65825;52.232;10.566;2023-07-09T01:27:50;59148.31;;;-139.39;100.00
76853;BME280;65825;52.232;10.566;2023-07-09T01:30:23;59148.31;;;-139.39;100.00
76853;BME280;65825;52.232;10.566;2023-07-09T01:32:51;59148.31;;;-139.39;100.00
76853;BME280;65825;52.232;10.566;2023-07-09T01:35:18;59148.31;;;-139.39;100.00
76853;BME280;65825;52.232;10.566;2023-07-09T01:37:45;59148.31;;;-139.39;100.00
76853;BME280;65825;52.232;10.566;2023-07-09T01:40:13;59148.31;;;-139.39;100.00
76853;BME280;65825;52.232;10.566;2023-07-09T01:42:39;59148.31;;;-139.39;100.00
76853;BME280;65825;52.232;10.566;2023-07-09T01:45:07;59148.31;;;-139.39;100.00
76853;BME280;65825;52.232;10.566;2023-07-09T01:47:33;59148.31;;;-139.39;100.00
76853;BME280;65825;52.232;10.566;2023-07-09T01:49:58;59148.31;;;-139.39;100.00
76853;BME280;65825;52.232;10.566;2023-07-09T01:52:27;59148.31;;;-139.39;100.00
76853;BME280;65825;52.232;10.566;2023-07-09T01:54:53;59148.31;;;-139.39;100.00
76853;BME280;65825;52.232;10.566;2023-07-09T01:57:25;59148.31;;;-139.39;100.00
76853;BME280;65825;52.232;10.566;2023-07-09T01:59:54;59148.31;;;-139.39;100.00
76853;BME280;65825;52.232;10.566;2023-07-09T02:02:21;59148.31;;;-139.39;100.00
76853;BME280;65825;52.232;10.566;2023-07-09T02:04:47;59148.31;;;-139.39;100.00
76853;BME280;65825;52.232;10.566;2023-07-09T02:07:13;59148.31;;;-139.39;100.00
76853;BME280;65825;52.232;10.566;2023-07-09T02:09:39;59148.31;;;-139.39;100.00
76853;BME280;65825;52.232;10.566;2023-07-09T02:12:04;59148.31;;;-139.39;100.00
76853;BME280;65825;52.232;10.566;2023-07-09T02:14:29;59148.31;;;-139.39;100.00
76853;BME280;65825;52.232;10.566;2023-07-09T02:16:55;59148.31;;;-139.39;100.00
76853;BME280;65825;52.232;10.566;2023-07-09T02:19:20;59148.31;;;-139.39;100.00
76853;BME280;65825;52.232;10.566;2023-07-09T02:21:45;59148.31;;;-139.39;100.00
76853;BME280;65825;52.232;10.566;2023-07-09T02:24:11;59148.31;;;-139.39;100.00
76853;BME280;65825;52.232;10.566;2023-07-09T02:26:36;59148.31;;;-139.39;100.00
76853;BME280;65825;52.232;10.566;2023-07-09T02:29:01;59148.31;;;-139.39;100.00
76853;BME280;65825;52.232;10.566;2023-07-09T02:31:26;59148.31;;;-139.39;100.00
76853;BME280;65825;52.232;10.566;2023-07-09T02:33:55;59148.31;;;-139.39;100.00
76853;BME280;65825;52.232;10.566;2023-07-09T02:36:20;59148.31;;;-139.39;100.00
76853;BME280;65825;52.232;10.566;2023-07-09T02:38:45;59148.31;;;-139.39;100.00
76853;BME280;65825;52.232;10.566;2023-07-09T02:41:10;59148.31;;;-139.39;100.00
76853;BME280;65825;52.232;10.566;2023-07-09T02:43:36;59148.31;;;-139.39;100.00
76853;BME280;65825;52.232;10.566;2023-07-09T02:46:01;59148.31;;;-139.39;100.00
76853;BME280;65825;52.232;10.566;2023-07-09T02:48:26;59148.31;;;-139.39;100.00
76853;BME280;65825;52.232;10.566;2023-07-09T02:50:51;59148.31;;;-139.39;100.00
76853;BME280;65825;52.232;10.566;2023-07-09T02:53:17;59148.31;;;-139.39;100.00
76853;BME280;65825;52.232;10.566;2023-07-09T02:55:42;59148.31;;;-139.39;100.00
76853;BME280;65825;52.232;10.566;2023-07-09T02:58:07;59148.31;;;-139.39;100.00
76853;BME280;65825;52.232;10.566;2023-07-09T03:00:32;59148.31;;;-139.39;100.00
76853;BME280;65825;52.232;10.566;2023-07-09T03:02:58;59148.31;;;-139.39;100.00
76853;BME280;65825;52.232;10.566;2023-07-09T03:05:23;59148.31;;;-139.39;100.00
76853;BME280;65825;52.232;10.566;2023-07-09T03:07:49;59148.31;;;-139.39;100.00
76853;BME280;65825;52.232;10.566;2023-07-09T03:10:14;59148.31;;;-139.39;100.00
76853;BME280;65825;52.232;10.566;2023-07-09T03:12:39;59148.31;;;-139.39;100.00
76853;BME280;65825;52.232;10.566;2023-07-09T03:15:05;59148.31;;;-139.39;100.00
76853;BME280;65825;52.232;10.566;2023-07-09T03:17:30;59148.31;;;-139.39;100.00
76853;BME280;65825;52.232;10.566;2023-07-09T03:19:56;59148.31;;;-139.39;100.00
76853;BME280;65825;52.232;10.566;2023-07-09T03:22:21;59148.31;;;-139.39;100.00
76853;BME280;65825;52.232;10.566;2023-07-09T03:24:46;59148.31;;;-139.39;100.00
76853;BME280;65825;52.232;10.566;2023-07-09T03:27:11;59148.31;;;-139.39;100.00
76853;BME280;65825;52.232;10.566;2023-07-09T03:29:37;59148.31;;;-139.39;100.00
76853;BME280;65825;52.232;10.566;2023-07-09T03:32:02;59148.31;;;-139.39;100.00
76853;BME280;65825;52.232;10.566;2023-07-09T03:34:27;59148.31;;;-139.39;100.00
76853;BME280;65825;52.232;10.566;2023-07-09T03:36:53;59148.31;;;-139.39;100.00
76853;BME280;65825;52.232;10.566;2023-07-09T03:39:18;59148.31;;;-139.39;100.00
76853;BME280;65825;52.232;10.566;2023-07-09T03:41:43;59148.31;;;-139.39;100.00
76853;BME280;65825;52.232;10.566;2023-07-09T03:44:08;59148.31;;;-139.39;100.00
76853;BME280;65825;52.232;10.566;2023-07-09T03:46:33;59148.31;;;-139.39;100.00
76853;BME280;65825;52.232;10.566;2023-07-09T03:48:59;59148.31;;;-139.39;100.00
76853;BME280;65825;52.232;10.566;2023-07-09T03:51:27;59148.31;;;-139.39;100.00
76853;BME280;65825;52.232;10.566;2023-07-09T03:53:52;59148.31;;;-139.39;100.00
76853;BME280;65825;52.232;10.566;2023-07-09T03:56:18;59148.31;;;-139.39;100.00
76853;BME280;65825;52.232;10.566;2023-07-09T03:58:43;59148.31;;;-139.39;100.00
76853;BME280;65825;52.232;10.566;2023-07-09T04:01:08;59148.31;;;-139.39;100.00
76853;BME280;65825;52.232;10.566;2023-07-09T04:03:33;59148.31;;;-139.39;100.00
76853;BME280;65825;52.232;10.566;2023-07-09T04:05:59;59148.31;;;-139.39;100.00
76853;BME280;65825;52.232;10.566;2023-07-09T04:08:24;59148.31;;;-139.39;100.00
76853;BME280;65825;52.232;10.566;2023-07-09T04:10:53;59148.31;;;-139.39;100.00
76853;BME280;65825;52.232;10.566;2023-07-09T04:13:18;59148.31;;;-139.39;100.00
76853;BME280;65825;52.232;10.566;2023-07-09T04:15:43;59148.31;;;-139.39;100.00
76853;BME280;65825;52.232;10.566;2023-07-09T04:18:09;59148.31;;;-139.39;100.00
76853;BME280;65825;52.232;10.566;2023-07-09T04:20:34;59148.31;;;-139.39;100.00
76853;BME280;65825;52.232;10.566;2023-07-09T04:23:00;59148.31;;;-139.39;100.00
76853;BME280;65825;52.232;10.566;2023-07-09T04:25:25;59148.31;;;-139.39;100.00
76853;BME280;65825;52.232;10.566;2023-07-09T04:27:50;59148.31;;;-139.39;100.00
76853;BME280;65825;52.232;10.566;2023-07-09T04:30:16;59148.31;;;-139.39;100.00
76853;BME280;65825;52.232;10.566;2023-07-09T04:32:45;59148.31;;;-139.39;100.00
76853;BME280;65825;52.232;10.566;2023-07-09T04:35:12;59148.31;;;-139.39;100.00
76853;BME280;65825;52.232;10.566;2023-07-09T04:37:38;59148.31;;;-139.39;100.00
76853;BME280;65825;52.232;10.566;2023-07-09T04:40:06;59148.31;;;-139.39;100.00
76853;BME280;65825;52.232;10.566;2023-07-09T04:42:32;59148.31;;;-139.39;100.00
76853;BME280;65825;52.232;10.566;2023-07-09T04:44:57;59148.31;;;-139.39;100.00
76853;BME280;65825;52.232;10.566;2023-07-09T04:47:23;59148.31;;;-139.39;100.00
76853;BME280;65825;52.232;10.566;2023-07-09T04:49:48;59148.31;;;-139.39;100.00
76853;BME280;65825;52.232;10.566;2023-07-09T04:52:13;59148.31;;;-139.39;100.00
76853;BME280;65825;52.232;10.566;2023-07-09T04:54:43;59148.31;;;-139.39;100.00
76853;BME280;65825;52.232;10.566;2023-07-09T04:57:11;59148.31;;;-139.39;100.00
76853;BME280;65825;52.232;10.566;2023-07-09T04:59:37;59148.31;;;-139.39;100.00
76853;BME280;65825;52.232;10.566;2023-07-09T05:02:03;59148.31;;;-139.39;100.00
76853;BME280;65825;52.232;10.566;2023-07-09T05:04:29;59148.31;;;-139.39;100.00
76853;BME280;65825;52.232;10.566;2023-07-09T05:06:54;59148.31;;;-139.39;100.00
76853;BME280;65825;52.232;10.566;2023-07-09T05:09:20;59148.31;;;-139.39;100.00
76853;BME280;65825;52.232;10.566;2023-07-09T05:11:45;59148.31;;;-139.39;100.00
76853;BME280;65825;52.232;10.566;2023-07-09T05:14:11;59148.31;;;-139.39;100.00
76853;BME280;65825;52.232;10.566;2023-07-09T05:16:36;59148.31;;;-139.39;100.00
76853;BME280;65825;52.232;10.566;2023-07-09T05:19:01;59148.31;;;-139.39;100.00
76853;BME280;65825;52.232;10.566;2023-07-09T05:21:26;59148.31;;;-139.39;100.00
76853;BME280;65825;52.232;10.566;2023-07-09T05:23:52;59148.31;;;-139.39;100.00
76853;BME280;65825;52.232;10.566;2023-07-09T05:26:17;59148.31;;;-139.39;100.00
76853;BME280;65825;52.232;10.566;2023-07-09T05:28:42;59148.31;;;-139.39;100.00
76853;BME280;65825;52.232;10.566;2023-07-09T05:31:08;59148.31;;;-139.39;100.00
76853;BME280;65825;52.232;10.566;2023-07-09T05:33:33;59148.31;;;-139.39;100.00
76853;BME280;65825;52.232;10.566;2023-07-09T05:35:59;59148.31;;;-139.39;100.00
76853;BME280;65825;52.232;10.566;2023-07-09T05:38:24;59148.31;;;-139.39;100.00
76853;BME280;65825;52.232;10.566;2023-07-09T05:40:59;59148.31;;;-139.39;100.00
76853;BME280;65825;52.232;10.566;2023-07-09T05:43:25;59148.31;;;-139.39;100.00
76853;BME280;65825;52.232;10.566;2023-07-09T05:45:50;59148.31;;;-139.39;100.00
76853;BME280;65825;52.232;10.566;2023-07-09T05:48:15;59148.31;;;-139.39;100.00
76853;BME280;65825;52.232;10.566;2023-07-09T05:50:41;59148.31;;;-139.39;100.00
76853;BME280;65825;52.232;10.566;2023-07-09T05:53:09;59148.31;;;-139.39;100.00
76853;BME280;65825;52.232;10.566;2023-07-09T05:55:34;59148.31;;;-139.39;100.00
76853;BME280;65825;52.232;10.566;2023-07-09T05:58:02;59148.31;;;-139.39;100.00
76853;BME280;65825;52.232;10.566;2023-07-09T06:00:28;59148.31;;;-139.39;100.00
76853;BME280;65825;52.232;10.566;2023-07-09T06:02:53;59148.31;;;-139.39;100.00
76853;BME280;65825;52.232;10.566;2023-07-09T06:05:18;59148.31;;;-139.39;100.00
76853;BME280;65825;52.232;10.566;2023-07-09T06:07:43;59148.31;;;-139.39;100.00
76853;BME280;65825;52.232;10.566;2023-07-09T06:10:09;59148.31;;;-139.39;100.00
76853;BME280;65825;52.232;10.566;2023-07-09T06:12:36;59148.31;;;-139.39;100.00
76853;BME280;65825;52.232;10.566;2023-07-09T06:15:03;59148.31;;;-139.39;100.00
76853;BME280;65825;52.232;10.566;2023-07-09T06:17:28;59148.31;;;-139.39;100.00
76853;BME280;65825;52.232;10.566;2023-07-09T06:19:54;59148.31;;;-139.39;100.00
76853;BME280;65825;52.232;10.566;2023-07-09T06:22:19;59148.31;;;-139.39;100.00
76853;BME280;65825;52.232;10.566;2023-07-09T06:24:45;59148.31;;;-139.39;100.00
76853;BME280;65825;52.232;10.566;2023-07-09T06:27:10;59148.31;;;-139.39;100.00
76853;BME280;65825;52.232;10.566;2023-07-09T06:29:35;59148.31;;;-139.39;100.00
76853;BME280;65825;52.232;10.566;2023-07-09T06:32:01;59148.31;;;-139.39;100.00
76853;BME280;65825;52.232;10.566;2023-07-09T06:34:26;59148.31;;;-139.39;100.00
76853;BME280;65825;52.232;10.566;2023-07-09T06:36:51;59148.31;;;-139.39;100.00
76853;BME280;65825;52.232;10.566;2023-07-09T06:39:17;59148.31;;;-139.39;100.00
76853;BME280;65825;52.232;10.566;2023-07-09T06:41:46;59148.31;;;-139.39;100.00
76853;BME280;65825;52.232;10.566;2023-07-09T06:44:11;59148.31;;;-139.39;100.00
76853;BME280;65825;52.232;10.566;2023-07-09T06:46:37;59148.31;;;-139.39;100.00
76853;BME280;65825;52.232;10.566;2023-07-09T06:49:03;59148.31;;;-139.39;100.00
76853;BME280;65825;52.232;10.566;2023-07-09T06:51:30;59148.31;;;-139.39;100.00
76853;BME280;65825;52.232;10.566;2023-07-09T06:53:56;59148.31;;;-139.39;100.00
76853;BME280;65825;52.232;10.566;2023-07-09T06:56:21;59148.31;;;-139.39;100.00
76853;BME280;65825;52.232;10.566;2023-07-09T06:58:46;59148.31;;;-139.39;100.00
76853;BME280;65825;52.232;10.566;2023-07-09T07:01:12;59148.31;;;-139.39;100.00
76853;BME280;65825;52.232;10.566;2023-07-09T07:03:37;59148.31;;;-139.39;100.00
76853;BME280;65825;52.232;10.566;2023-07-09T07:06:03;59148.31;;;-139.39;100.00
76853;BME280;65825;52.232;10.566;2023-07-09T07:08:30;59148.31;;;-139.39;100.00
76853;BME280;65825;52.232;10.566;2023-07-09T07:10:57;59148.31;;;-139.39;100.00
76853;BME280;65825;52.232;10.566;2023-07-09T07:13:31;59148.31;;;-139.39;100.00
76853;BME280;65825;52.232;10.566;2023-07-09T07:15:57;59148.31;;;-139.39;100.00
76853;BME280;65825;52.232;10.566;2023-07-09T07:18:22;59148.31;;;-139.39;100.00
76853;BME280;65825;52.232;10.566;2023-07-09T07:20:49;59148.31;;;-139.39;100.00
76853;BME280;65825;52.232;10.566;2023-07-09T07:23:14;59148.31;;;-139.39;100.00
76853;BME280;65825;52.232;10.566;2023-07-09T07:25:41;59148.31;;;-139.39;100.00
76853;BME280;65825;52.232;10.566;2023-07-09T07:28:06;59148.31;;;-139.39;100.00
76853;BME280;65825;52.232;10.566;2023-07-09T07:30:31;59148.31;;;-139.39;100.00
76853;BME280;65825;52.232;10.566;2023-07-09T07:32:56;59148.31;;;-139.39;100.00
76853;BME280;65825;52.232;10.566;2023-07-09T07:35:22;59148.31;;;-139.39;100.00
76853;BME280;65825;52.232;10.566;2023-07-09T07:37:47;59148.31;;;-139.39;100.00
76853;BME280;65825;52.232;10.566;2023-07-09T07:40:12;59148.31;;;-139.39;100.00
76853;BME280;65825;52.232;10.566;2023-07-09T07:42:38;59148.31;;;-139.39;100.00
76853;BME280;65825;52.232;10.566;2023-07-09T07:45:03;59148.31;;;-139.39;100.00
76853;BME280;65825;52.232;10.566;2023-07-09T07:47:29;59148.31;;;-139.39;100.00
76853;BME280;65825;52.232;10.566;2023-07-09T07:49:56;59148.31;;;-139.39;100.00
76853;BME280;65825;52.232;10.566;2023-07-09T07:52:22;59148.31;;;-139.39;100.00
76853;BME280;65825;52.232;10.566;2023-07-09T07:54:47;59148.31;;;-139.39;100.00
76853;BME280;65825;52.232;10.566;2023-07-09T07:57:12;59148.31;;;-139.39;100.00
76853;BME280;65825;52.232;10.566;2023-07-09T07:59:38;59148.31;;;-139.39;100.00
76853;BME280;65825;52.232;10.566;2023-07-09T08:02:05;59148.31;;;-139.39;100.00
76853;BME280;65825;52.232;10.566;2023-07-09T08:04:31;59148.31;;;-139.39;100.00
76853;BME280;65825;52.232;10.566;2023-07-09T08:06:56;59148.31;;;-139.39;100.00
76853;BME280;65825;52.232;10.566;2023-07-09T08:09:23;59148.31;;;-139.39;100.00
76853;BME280;65825;52.232;10.566;2023-07-09T08:11:48;59148.31;;;-139.39;100.00
76853;BME280;65825;52.232;10.566;2023-07-09T08:14:14;59148.31;;;-139.39;100.00
76853;BME280;65825;52.232;10.566;2023-07-09T08:16:39;59148.31;;;-139.39;100.00
76853;BME280;65825;52.232;10.566;2023-07-09T08:19:05;59148.31;;;-139.39;100.00
76853;BME280;65825;52.232;10.566;2023-07-09T08:21:30;59148.31;;;-139.39;100.00
76853;BME280;65825;52.232;10.566;2023-07-09T08:23:55;59148.31;;;-139.39;100.00
76853;BME280;65825;52.232;10.566;2023-07-09T08:26:21;59148.31;;;-139.39;100.00
76853;BME280;65825;52.232;10.566;2023-07-09T08:28:46;59148.31;;;-139.39;100.00
76853;BME280;65825;52.232;10.566;2023-07-09T08:44:37;59148.31;;;-139.39;100.00
76853;BME280;65825;52.232;10.566;2023-07-09T08:49:57;59148.31;;;-139.39;100.00
76853;BME280;65825;52.232;10.566;2023-07-09T08:52:31;59148.31;;;-139.39;100.00
76853;BME280;65825;52.232;10.566;2023-07-09T08:55:04;59148.31;;;-139.39;100.00
76853;BME280;65825;52.232;10.566;2023-07-09T08:57:34;59148.31;;;-139.39;100.00
76853;BME280;65825;52.232;10.566;2023-07-09T09:00:13;59148.31;;;-139.39;100.00
76853;BME280;65825;52.232;10.566;2023-07-09T09:18:43;59148.31;;;-139.39;100.00
76853;BME280;65825;52.232;10.566;2023-07-09T09:21:24;59148.31;;;-139.39;100.00
76853;BME280;65825;52.232;10.566;2023-07-09T09:23:53;59148.31;;;-139.39;100.00
76853;BME280;65825;52.232;10.566;2023-07-09T09:26:31;59148.31;;;-139.39;100.00
76853;BME280;65825;52.232;10.566;2023-07-09T09:28:57;59148.31;;;-139.39;100.00
76853;BME280;65825;52.232;10.566;2023-07-09T09:31:25;59148.31;;;-139.39;100.00
76853;BME280;65825;52.232;10.566;2023-07-09T09:33:51;59148.31;;;-139.39;100.00
76853;BME280;65825;52.232;10.566;2023-07-09T09:36:23;59148.31;;;-139.39;100.00
76853;BME280;65825;52.232;10.566;2023-07-09T09:38:49;59148.31;;;-139.39;100.00
76853;BME280;65825;52.232;10.566;2023-07-09T09:41:19;59148.31;;;-139.39;100.00
76853;BME280;65825;52.232;10.566;2023-07-09T09:43:45;59148.31;;;-139.39;100.00
76853;BME280;65825;52.232;10.566;2023-07-09T09:46:20;59148.31;;;-139.39;100.00
76853;BME280;65825;52.232;10.566;2023-07-09T09:52:18;59148.31;;;-139.39;100.00
76853;BME280;65825;52.232;10.566;2023-07-09T09:54:49;59148.31;;;-139.39;100.00
76853;BME280;65825;52.232;10.566;2023-07-09T09:57:17;59148.31;;;-139.39;100.00
76853;BME280;65825;52.232;10.566;2023-07-09T09:59:43;59148.31;;;-139.39;100.00
76853;BME280;65825;52.232;10.566;2023-07-09T10:02:22;59148.31;;;-139.39;100.00
76853;BME280;65825;52.232;10.566;2023-07-09T10:04:48;59148.31;;;-139.39;100.00
76853;BME280;65825;52.232;10.566;2023-07-09T10:07:26;59148.31;;;-139.39;100.00
76853;BME280;65825;52.232;10.566;2023-07-09T10:09:54;59148.31;;;-139.39;100.00
76853;BME280;65825;52.232;10.566;2023-07-09T10:12:39;59148.31;;;-139.39;100.00
76853;BME280;65825;52.232;10.566;2023-07-09T10:18:06;59148.31;;;-139.39;100.00
76853;BME280;65825;52.232;10.566;2023-07-09T10:20:40;59148.31;;;-139.39;100.00
76853;BME280;65825;52.232;10.566;2023-07-09T10:23:26;59148.31;;;-139.39;100.00
76853;BME280;65825;52.232;10.566;2023-07-09T10:25:55;59148.31;;;-139.39;100.00
76853;BME280;65825;52.232;10.566;2023-07-09T10:39:35;59148.31;;;-139.39;100.00
76853;BME280;65825;52.232;10.566;2023-07-09T10:42:03;59148.31;;;-139.39;100.00
76853;BME280;65825;52.232;10.566;2023-07-09T10:44:35;59148.31;;;-139.39;100.00
76853;BME280;65825;52.232;10.566;2023-07-09T10:47:05;59148.31;;;-139.39;100.00
76853;BME280;65825;52.232;10.566;2023-07-09T10:49:35;59148.31;;;-139.39;100.00
76853;BME280;65825;52.232;10.566;2023-07-09T10:52:11;59148.31;;;-139.39;100.00
76853;BME280;65825;52.232;10.566;2023-07-09T11:03:43;101056.94;;;34.71;39.27
76853;BME280;65825;52.232;10.566;2023-07-09T11:06:43;101061.94;;;34.82;35.33
76853;BME280;65825;52.232;10.566;2023-07-09T11:09:19;101059.13;;;34.97;36.00
76853;BME280;65825;52.232;10.566;2023-07-09T11:11:48;101049.72;;;35.06;33.25
76853;BME280;65825;52.232;10.566;2023-07-09T11:14:27;101047.03;;;35.12;35.96
76853;BME280;65825;52.232;10.566;2023-07-09T11:16:57;101058.84;;;35.13;31.57
76853;BME280;65825;52.232;10.566;2023-07-09T11:19:24;101048.50;;;34.73;32.94
76853;BME280;65825;52.232;10.566;2023-07-09T11:22:23;101050.06;;;35.17;34.47
76853;BME280;65825;52.232;10.566;2023-07-09T11:25:03;101042.75;;;35.58;33.93
76853;BME280;65825;52.232;10.566;2023-07-09T11:27:30;101041.00;;;35.44;37.01
76853;BME280;65825;52.232;10.566;2023-07-09T11:30:16;101038.88;;;34.98;31.63
76853;BME280;65825;52.232;10.566;2023-07-09T11:32:56;101037.34;;;35.37;33.37
76853;BME280;65825;52.232;10.566;2023-07-09T11:35:24;101039.44;;;35.35;29.75
76853;BME280;65825;52.232;10.566;2023-07-09T11:37:50;101037.81;;;35.41;33.88
76853;BME280;65825;52.232;10.566;2023-07-09T11:40:17;101041.13;;;35.36;29.84
76853;BME280;65825;52.232;10.566;2023-07-09T11:42:57;101030.50;;;35.54;29.60
76853;BME280;65825;52.232;10.566;2023-07-09T11:45:28;101031.63;;;35.66;30.92
76853;BME280;65825;52.232;10.566;2023-07-09T11:48:25;101035.81;;;35.90;35.21
76853;BME280;65825;52.232;10.566;2023-07-09T11:50:53;101024.97;;;35.75;30.51
76853;BME280;65825;52.232;10.566;2023-07-09T11:53:31;101020.34;;;35.82;33.30
76853;BME280;65825;52.232;10.566;2023-07-09T11:55:59;101029.69;;;35.94;35.42
76853;BME280;65825;52.232;10.566;2023-07-09T11:58:24;101020.53;;;35.74;34.11
76853;BME280;65825;52.232;10.566;2023-07-09T12:00:52;101028.59;;;35.82;33.18
76853;BME280;65825;52.232;10.566;2023-07-09T12:03:20;101023.53;;;35.86;34.51
76853;BME280;65825;52.232;10.566;2023-07-09T12:05:50;101021.59;;;35.80;32.19
76853;BME280;65825;52.232;10.566;2023-07-09T12:08:16;101019.19;;;35.70;31.61
76853;BME280;65825;52.232;10.566;2023-07-09T12:10:43;101020.78;;;35.58;33.00
76853;BME280;65825;52.232;10.566;2023-07-09T12:13:10;101018.31;;;35.97;34.05
76853;BME280;65825;52.232;10.566;2023-07-09T12:15:38;101011.09;;;35.90;31.67
76853;BME280;65825;52.232;10.566;2023-07-09T12:18:11;101009.31;;;36.16;34.08
76853;BME280;65825;52.232;10.566;2023-07-09T12:20:36;101009.53;;;35.74;31.68
76853;BME280;65825;52.232;10.566;2023-07-09T12:25:50;101002.69;;;36.04;31.67
76853;BME280;65825;52.232;10.566;2023-07-09T12:28:17;101003.66;;;35.84;31.44
76853;BME280;65825;52.232;10.566;2023-07-09T12:30:46;101001.53;;;35.86;34.43
76853;BME280;65825;52.232;10.566;2023-07-09T12:33:16;100997.16;;;35.91;30.99
76853;BME280;65825;52.232;10.566;2023-07-09T12:35:42;101006.44;;;35.90;26.82
76853;BME280;65825;52.232;10.566;2023-07-09T12:38:21;100996.59;;;36.09;28.19
76853;BME280;65825;52.232;10.566;2023-07-09T12:40:48;100994.97;;;35.80;27.04
76853;BME280;65825;52.232;10.566;2023-07-09T12:43:13;100997.91;;;36.19;27.61
76853;BME280;65825;52.232;10.566;2023-07-09T12:45:39;100996.06;;;36.26;29.40
76853;BME280;65825;52.232;10.566;2023-07-09T12:48:05;100988.19;;;35.49;26.08
76853;BME280;65825;52.232;10.566;2023-07-09T12:50:34;100997.03;;;36.12;28.21
76853;BME280;65825;52.232;10.566;2023-07-09T12:53:19;100991.09;;;36.09;26.19
76853;BME280;65825;52.232;10.566;2023-07-09T12:55:47;100983.41;;;35.91;25.29
76853;BME280;65825;52.232;10.566;2023-07-09T12:58:21;100981.25;;;36.27;28.20
76853;BME280;65825;52.232;10.566;2023-07-09T13:00:49;100978.91;;;36.24;27.80
76853;BME280;65825;52.232;10.566;2023-07-09T13:03:18;100980.16;;;36.22;29.54
76853;BME280;65825;52.232;10.566;2023-07-09T13:06:00;100982.59;;;36.57;28.13
76853;BME280;65825;52.232;10.566;2023-07-09T13:08:27;100973.09;;;36.06;25.67
76853;BME280;65825;52.232;10.566;2023-07-09T13:10:54;100974.13;;;36.52;28.27
76853;BME280;65825;52.232;10.566;2023-07-09T13:13:22;100978.50;;;36.40;28.30
76853;BME280;65825;52.232;10.566;2023-07-09T13:15:57;100977.22;;;36.30;27.18
76853;BME280;65825;52.232;10.566;2023-07-09T13:18:26;100973.88;;;36.54;26.51
76853;BME280;65825;52.232;10.566;2023-07-09T13:20:53;100984.22;;;36.32;28.13
76853;BME280;65825;52.232;10.566;2023-07-09T13:23:23;100982.53;;;36.38;26.95
76853;BME280;65825;52.232;10.566;2023-07-09T13:25:49;100978.19;;;36.69;28.87
76853;BME280;65825;52.232;10.566;2023-07-09T13:28:23;100986.81;;;36.53;29.92